Station: CTA 2 CULTANA TRAINING AREA [T

  Atmospheric Gas Attenuation - ITU Rec 676-11   --------------- db/100km ---------------
Date Time Temp RH % AH g/m3 Dew Point Wind Direction Speed kph Gust kph Barometer mB Rainfall Since 9am 24GHz 47GHz 76GHz 122GHz 134GHz 241GHz
13 07:00 7.5 99 7.93 7.4 7 9 1013.1 0 18.4 26.6 40.2 105.5 97.3 333.7
13 06:50 7.6 99 7.98 7.4 7 7 1013.1 0 18.6 26.7 40.4 105.9 97.8 335.7
13 06:40 7.6 99 7.98 7.4 9 11 1013.1 0 18.6 26.7 40.4 105.9 97.8 335.7
13 06:30 7.6 99 7.98 7.5 9 13 1013.1 0 18.6 26.7 40.4 105.9 97.8 335.7
13 06:20 7.6 99 7.98 7.4 11 13 1013.1 0 18.6 26.7 40.4 105.9 97.8 335.7
13 06:10 7.4 99 7.88 7.2 11 15 1013.1 0 18.3 26.6 40.0 105.1 96.7 331.6
13 06:00 7 99 7.67 6.9 9 11 1013.1 0 17.9 26.3 39.4 103.2 94.2 323.0
13 05:50 6.9 99 7.63 6.7 7 7 1013.1 0 17.8 26.3 39.2 102.9 93.8 321.5
13 05:40 6.8 99 7.58 6.6 7 9 1013.1 0 17.7 26.3 39.1 102.5 93.2 319.4
13 05:30 6.8 99 7.58 6.7 7 11 1013.1 0 17.7 26.3 39.1 102.5 93.2 319.4
13 05:20 6.7 99 7.53 6.5 9 9 1013.1 0 17.6 26.2 38.9 102.0 92.6 317.4
13 05:10 6.6 99 7.48 6.4 9 11 1013.1 0 17.5 26.1 38.7 101.6 92.1 315.3
13 04:50 6.8 99 7.58 6.6 9 11 1013.1 0 17.7 26.3 39.1 102.5 93.2 319.4
13 04:40 6.8 99 7.58 6.6 9 11 1013.1 0 17.7 26.3 39.1 102.5 93.2 319.4
13 04:30 6.8 99 7.58 6.7 9 11 1013.1 0 17.7 26.3 39.1 102.5 93.2 319.4
13 04:20 6.8 99 7.58 6.6 9 11 1013.1 0 17.7 26.3 39.1 102.5 93.2 319.4
13 04:10 6.8 99 7.58 6.6 11 13 1013.1 0 17.7 26.3 39.1 102.5 93.2 319.4
13 04:00 7 99 7.67 6.9 11 13 1013.1 0 17.9 26.3 39.4 103.2 94.2 323.0
13 03:50 6.8 99 7.58 6.6 9 11 1013.1 0 17.7 26.3 39.1 102.5 93.2 319.4
13 03:40 6.6 99 7.48 6.4 9 9 1013.1 0 17.5 26.1 38.7 101.6 92.1 315.3
13 03:30 6.7 98 7.45 6.4 9 11 1013.1 0 17.4 26.1 38.6 101.1 91.5 313.5
13 03:20 6.7 98 7.45 6.4 7 9 1013.1 0 17.4 26.1 38.6 101.1 91.5 313.5
13 03:10 6.9 98 7.55 6.6 9 11 1013.1 0 17.7 26.2 38.9 102.0 92.7 317.5
13 03:00 7.1 98 7.65 6.8 13 13 1013.1 0 17.9 26.3 39.2 102.9 93.8 321.6
13 02:50 7 98 7.6 6.7 13 13 1013.1 0 17.8 26.2 39.1 102.4 93.3 319.6
13 02:40 6.7 98 7.45 6.4 9 11 1013.1 0 17.4 26.1 38.6 101.1 91.5 313.5
13 02:30 6.8 98 7.5 6.5 11 11 1013.1 0 17.6 26.1 38.7 101.5 92.1 315.5
13 02:20 6.8 98 7.5 6.5 9 9 1013.1 0 17.6 26.1 38.7 101.5 92.1 315.5
13 02:10 6.8 98 7.5 6.5 9 9 1013.1 0 17.6 26.1 38.7 101.5 92.1 315.5
13 02:00 7.1 98 7.65 6.8 9 11 1013.1 0 17.9 26.3 39.2 102.9 93.8 321.6
13 01:50 7.1 98 7.65 6.8 9 9 1013.1 0 17.9 26.3 39.2 102.9 93.8 321.6
13 01:40 7 98 7.6 6.7 9 9 1013.1 0 17.8 26.2 39.1 102.4 93.3 319.6
13 01:30 7.1 98 7.65 6.8 9 11 1013.1 0 17.9 26.3 39.2 102.9 93.8 321.6
13 01:20 7 97 7.52 6.5 9 9 1013.1 0 17.6 26.1 38.7 101.5 92.1 315.7
13 01:10 6.9 97 7.47 6.4 9 9 1013.1 0 17.5 26.0 38.6 101.1 91.6 313.6
13 01:00 6.9 97 7.47 6.5 11 13 1013.1 0 17.5 26.0 38.6 101.1 91.6 313.6
13 00:50 7 97 7.52 6.5 9 11 1013.1 0 17.6 26.1 38.7 101.5 92.1 315.7
13 00:40 7.3 97 7.67 6.8 11 11 1013.1 0 17.9 26.3 39.2 102.8 93.9 321.8
13 00:30 7.3 96 7.59 6.7 13 15 1013.1 0 17.7 26.1 38.9 101.9 92.8 317.9
13 00:20 7.3 96 7.59 6.7 15 15 1013.1 0 17.7 26.1 38.9 101.9 92.8 317.9
13 00:10 7.5 96 7.69 6.9 15 15 1013.1 0 17.9 26.2 39.2 102.8 93.9 321.9
13 00:00 7.6 95 7.66 6.9 15 17 1013.1 0 17.9 26.2 39.0 102.3 93.4 320.0
12 23:50 7.6 95 7.66 6.8 15 17 1013.1 0 17.9 26.2 39.0 102.3 93.4 320.0
12 23:40 7.8 95 7.76 7 13 13 1013.1 0 18.1 26.3 39.3 103.2 94.5 324.1
12 23:30 7.9 94 7.72 7 13 13 1013.1 0 18.0 26.2 39.1 102.6 93.8 321.7
12 23:20 8 94 7.77 7.1 13 13 1013.1 0 18.1 26.2 39.3 103.0 94.4 323.7
12 23:10 8.1 93 7.74 7 11 11 1013.1 0 18.0 26.1 39.1 102.5 93.9 321.8
12 23:00 8.3 92 7.76 7.1 9 13 1013.1 0 18.0 26.1 39.1 102.5 93.9 322.0
12 22:50 8.6 91 7.82 7.3 9 11 1013.1 0 18.2 26.1 39.2 102.8 94.4 323.6
12 22:40 8.5 91 7.77 7.2 11 13 1013.1 0 18.1 26.1 39.0 102.4 93.8 321.6
12 22:30 8.7 91 7.87 7.3 11 17 1013.1 0 18.3 26.2 39.3 103.2 94.9 325.6
12 22:20 8.8 91 7.92 7.4 11 13 1013.1 0 18.4 26.2 39.5 103.6 95.5 327.6
12 22:10 8.8 91 7.92 7.4 9 11 1013.1 0 18.4 26.2 39.5 103.6 95.5 327.6
12 22:00 8.7 90 7.79 7.2 9 11 1013.1 0 18.1 26.0 39.0 102.3 93.8 321.8
12 21:50 8.7 90 7.79 7.1 9 11 1013.1 0 18.1 26.0 39.0 102.3 93.8 321.8
12 21:40 8.7 90 7.79 7.1 11 11 1013.1 0 18.1 26.0 39.0 102.3 93.8 321.8
12 21:30 8.7 89 7.7 7 11 13 1013.1 0 17.9 25.9 38.6 101.3 92.6 317.5
12 21:20 8.6 88 7.56 6.7 11 11 1013.1 0 17.6 25.7 38.1 99.9 90.8 311.2
12 21:10 8.8 88 7.66 6.9 15 17 1013.1 0 17.8 25.8 38.4 100.7 91.9 315.1
12 21:00 8.8 88 7.66 6.9 13 17 1013.1 0 17.8 25.8 38.4 100.7 91.9 315.1
12 20:50 8.8 88 7.66 6.9 13 15 1013.1 0 17.8 25.8 38.4 100.7 91.9 315.1
12 20:40 8.9 87 7.62 6.8 13 15 1013.1 0 17.7 25.7 38.2 100.2 91.3 312.8
12 20:30 9 87 7.67 7 15 17 1013.1 0 17.8 25.8 38.4 100.6 91.8 314.8
12 20:20 9 87 7.67 6.9 13 15 1013.1 0 17.8 25.8 38.4 100.6 91.8 314.8
12 20:10 9.2 85 7.59 6.9 15 15 1013.1 0 17.6 25.6 37.9 99.5 90.5 310.2
12 20:00 9.4 85 7.69 7 17 17 1013.1 0 17.8 25.7 38.3 100.3 91.6 314.1
12 19:50 9.6 84 7.7 7 17 17 1013.1 0 17.9 25.6 38.2 100.2 91.5 313.8
12 19:40 9.8 83 7.7 7 15 19 1013.1 0 17.8 25.6 38.1 99.9 91.3 313.0
12 19:30 10 82 7.71 7.1 19 22 1013.1 0 17.9 25.5 38.1 99.7 91.2 312.7
12 19:20 10 81 7.61 6.9 19 20 1013.1 0 17.6 25.4 37.6 98.7 89.8 308.0
12 19:10 10.1 81 7.66 7 20 20 1013.1 0 17.7 25.4 37.8 99.1 90.4 309.9
12 19:00 10.4 79 7.62 6.9 20 26 1013.1 0 17.6 25.3 37.5 98.3 89.5 306.9
12 18:50 10.8 77 7.61 6.9 22 26 1013.1 0 17.6 25.1 37.3 97.7 88.9 304.9
12 18:40 11.2 75 7.6 6.9 24 28 1013.1 0 17.6 25.0 37.0 97.1 88.3 302.8
12 18:30 11.3 75 7.65 7 22 28 1013.1 0 17.7 25.1 37.2 97.5 88.9 304.8
12 18:20 11.5 75 7.75 7.2 19 22 1013.1 0 17.9 25.2 37.5 98.3 90.0 308.6
12 18:10 11.8 74 7.79 7.3 20 24 1013.1 0 17.9 25.2 37.5 98.3 90.1 309.3
12 18:00 11.9 73 7.73 7.2 19 24 1013.1 0 17.8 25.0 37.2 97.6 89.2 306.1
12 17:50 12.2 72 7.77 7.3 19 20 1013.1 0 17.9 25.0 37.2 97.6 89.4 306.8
12 17:40 12.5 69 7.59 7.1 20 24 1013.1 0 17.5 24.6 36.4 95.4 86.7 297.4
12 17:30 12.8 68 7.62 7 24 30 1013.1 0 17.5 24.6 36.4 95.3 86.8 297.7
12 17:20 13.2 67 7.69 7.2 22 24 1013.1 0 17.7 24.6 36.5 95.6 87.2 299.3
12 17:10 13.4 64 7.44 6.7 26 30 1013.1 0 17.1 24.2 35.4 92.7 83.8 287.4
12 17:00 13.2 64 7.35 6.5 22 28 1013.1 0 16.9 24.1 35.2 92.0 82.9 284.1
12 16:50 13.4 61 7.09 6.2 24 26 1013.1 0 16.4 23.6 34.1 89.2 79.4 271.9
12 16:40 13.4 61 7.09 6.2 26 30 1013.1 0 16.4 23.6 34.1 89.2 79.4 271.9
12 16:30 13.7 60 7.11 6.1 26 32 1013.1 0 16.4 23.6 34.0 89.0 79.3 271.7
12 16:20 14.2 58 7.08 6 22 26 1013.1 0 16.3 23.4 33.7 88.2 78.5 268.7
12 16:10 14.2 58 7.08 6 28 32 1013.1 0 16.3 23.4 33.7 88.2 78.5 268.7
12 16:00 13.7 60 7.11 6.1 30 35 1013.1 0 16.4 23.6 34.0 89.0 79.3 271.7
12 15:50 14.2 60 7.33 6.5 28 30 1013.1 0 16.9 23.8 34.6 90.7 81.6 279.7
12 15:40 14.1 60 7.28 6.4 28 32 1013.1 0 16.8 23.7 34.5 90.3 81.1 277.8
12 15:30 14.2 60 7.33 6.6 24 30 1013.1 0 16.9 23.8 34.6 90.7 81.6 279.7
12 15:20 13.6 62 7.3 6.4 28 32 1013.1 0 16.8 23.9 34.8 91.1 81.8 280.4
12 15:10 13.9 59 7.07 6 20 24 1013.1 0 16.3 23.5 33.8 88.4 78.6 269.3
12 15:00 14.2 54 6.59 5 22 28 1013.1 0 15.3 22.7 31.9 83.3 72.5 247.6
12 14:50 14.2 52 6.35 4.5 22 26 1013.1 0 14.8 22.3 31.0 80.9 69.5 237.4
12 14:40 14.7 50 6.3 4.6 24 26 1013.1 0 14.7 22.1 30.6 79.9 68.5 233.9
12 14:30 14.6 54 6.76 5.4 24 30 1013.1 0 15.6 22.8 32.3 84.5 74.2 253.6
12 14:20 13.8 55 6.55 5.1 22 26 1013.1 0 15.2 22.7 31.9 83.3 72.3 247.1

Last Refresh: 13-Jul-2020 07:13:03

Most of the information presented on this site is sourced from the Bureau of Meteorology.  Copyright in all material sourced from the Bureau of Meteorology resides with the Commonwealth of Australia.